sensor_id;sensor_type;location;lat;lon;timestamp;P1;durP1;ratioP1;P2;durP2;ratioP2
3259;SDS011;22469;48.150;14.004;2022-08-03T00:01:34;6.10;;;5.70;;
3259;SDS011;22469;48.150;14.004;2022-08-03T00:04:03;5.63;;;5.23;;
3259;SDS011;22469;48.150;14.004;2022-08-03T00:06:32;5.70;;;5.23;;
3259;SDS011;22469;48.150;14.004;2022-08-03T00:09:03;9.10;;;6.23;;
3259;SDS011;22469;48.150;14.004;2022-08-03T00:11:32;6.27;;;5.87;;
3259;SDS011;22469;48.150;14.004;2022-08-03T00:14:00;6.63;;;6.13;;
3259;SDS011;22469;48.150;14.004;2022-08-03T00:16:28;6.90;;;5.83;;
3259;SDS011;22469;48.150;14.004;2022-08-03T00:18:56;6.07;;;5.63;;
3259;SDS011;22469;48.150;14.004;2022-08-03T00:21:26;6.30;;;5.87;;
3259;SDS011;22469;48.150;14.004;2022-08-03T00:23:55;6.70;;;5.23;;
3259;SDS011;22469;48.150;14.004;2022-08-03T00:26:22;6.13;;;5.60;;
3259;SDS011;22469;48.150;14.004;2022-08-03T00:28:49;5.70;;;5.13;;
3259;SDS011;22469;48.150;14.004;2022-08-03T00:31:16;5.17;;;4.77;;
3259;SDS011;22469;48.150;14.004;2022-08-03T00:34:03;5.30;;;5.00;;
3259;SDS011;22469;48.150;14.004;2022-08-03T00:36:32;5.60;;;5.10;;
3259;SDS011;22469;48.150;14.004;2022-08-03T00:38:59;6.00;;;5.50;;
3259;SDS011;22469;48.150;14.004;2022-08-03T00:41:26;5.90;;;5.50;;
3259;SDS011;22469;48.150;14.004;2022-08-03T00:43:53;5.53;;;5.23;;
3259;SDS011;22469;48.150;14.004;2022-08-03T00:46:20;6.50;;;6.00;;
3259;SDS011;22469;48.150;14.004;2022-08-03T00:48:50;5.87;;;5.47;;
3259;SDS011;22469;48.150;14.004;2022-08-03T00:51:19;7.23;;;4.60;;
3259;SDS011;22469;48.150;14.004;2022-08-03T00:53:48;6.00;;;5.60;;
3259;SDS011;22469;48.150;14.004;2022-08-03T00:56:16;5.73;;;5.43;;
3259;SDS011;22469;48.150;14.004;2022-08-03T00:58:44;5.57;;;5.27;;
3259;SDS011;22469;48.150;14.004;2022-08-03T01:01:12;5.57;;;5.17;;
3259;SDS011;22469;48.150;14.004;2022-08-03T01:03:41;6.13;;;5.80;;
3259;SDS011;22469;48.150;14.004;2022-08-03T01:09:10;5.97;;;5.67;;
3259;SDS011;22469;48.150;14.004;2022-08-03T01:11:50;8.33;;;6.30;;
3259;SDS011;22469;48.150;14.004;2022-08-03T01:17:45;6.30;;;5.77;;
3259;SDS011;22469;48.150;14.004;2022-08-03T01:20:23;6.67;;;6.07;;
3259;SDS011;22469;48.150;14.004;2022-08-03T01:23:02;5.90;;;5.50;;
3259;SDS011;22469;48.150;14.004;2022-08-03T01:32:25;6.63;;;6.03;;
3259;SDS011;22469;48.150;14.004;2022-08-03T01:35:24;6.60;;;6.13;;
3259;SDS011;22469;48.150;14.004;2022-08-03T01:38:04;6.00;;;5.60;;
3259;SDS011;22469;48.150;14.004;2022-08-03T01:40:38;6.60;;;6.20;;
3259;SDS011;22469;48.150;14.004;2022-08-03T01:43:08;6.20;;;5.80;;
3259;SDS011;22469;48.150;14.004;2022-08-03T01:46:03;5.77;;;5.37;;
3259;SDS011;22469;48.150;14.004;2022-08-03T01:48:32;5.33;;;5.03;;
3259;SDS011;22469;48.150;14.004;2022-08-03T01:51:02;5.77;;;5.37;;
3259;SDS011;22469;48.150;14.004;2022-08-03T01:53:30;5.70;;;5.30;;
3259;SDS011;22469;48.150;14.004;2022-08-03T01:56:01;5.60;;;5.20;;
3259;SDS011;22469;48.150;14.004;2022-08-03T01:58:31;6.17;;;5.67;;
3259;SDS011;22469;48.150;14.004;2022-08-03T02:01:02;6.70;;;6.20;;
3259;SDS011;22469;48.150;14.004;2022-08-03T02:03:33;6.30;;;5.80;;
3259;SDS011;22469;48.150;14.004;2022-08-03T02:06:23;11.20;;;5.83;;
3259;SDS011;22469;48.150;14.004;2022-08-03T02:09:12;5.33;;;4.93;;
3259;SDS011;22469;48.150;14.004;2022-08-03T02:11:41;5.60;;;5.30;;
3259;SDS011;22469;48.150;14.004;2022-08-03T02:14:10;6.30;;;5.90;;
3259;SDS011;22469;48.150;14.004;2022-08-03T02:16:40;5.90;;;5.47;;
3259;SDS011;22469;48.150;14.004;2022-08-03T02:19:11;5.30;;;5.00;;
3259;SDS011;22469;48.150;14.004;2022-08-03T02:21:40;6.30;;;5.90;;
3259;SDS011;22469;48.150;14.004;2022-08-03T02:24:25;5.40;;;5.10;;
3259;SDS011;22469;48.150;14.004;2022-08-03T02:26:54;6.30;;;5.53;;
3259;SDS011;22469;48.150;14.004;2022-08-03T02:29:24;5.47;;;4.97;;
3259;SDS011;22469;48.150;14.004;2022-08-03T02:32:05;5.30;;;5.00;;
3259;SDS011;22469;48.150;14.004;2022-08-03T02:34:39;5.50;;;4.93;;
3259;SDS011;22469;48.150;14.004;2022-08-03T02:37:10;6.70;;;5.33;;
3259;SDS011;22469;48.150;14.004;2022-08-03T02:39:39;5.30;;;4.97;;
3259;SDS011;22469;48.150;14.004;2022-08-03T02:42:08;6.00;;;5.50;;
3259;SDS011;22469;48.150;14.004;2022-08-03T02:44:38;6.43;;;6.03;;
3259;SDS011;22469;48.150;14.004;2022-08-03T02:47:07;6.30;;;5.90;;
3259;SDS011;22469;48.150;14.004;2022-08-03T02:49:37;5.80;;;5.40;;
3259;SDS011;22469;48.150;14.004;2022-08-03T02:52:18;6.27;;;5.77;;
3259;SDS011;22469;48.150;14.004;2022-08-03T02:54:48;6.20;;;5.60;;
3259;SDS011;22469;48.150;14.004;2022-08-03T02:57:19;6.13;;;5.63;;
3259;SDS011;22469;48.150;14.004;2022-08-03T02:59:49;5.40;;;5.10;;
3259;SDS011;22469;48.150;14.004;2022-08-03T03:02:18;6.10;;;5.70;;
3259;SDS011;22469;48.150;14.004;2022-08-03T03:04:46;6.30;;;5.80;;
3259;SDS011;22469;48.150;14.004;2022-08-03T03:07:37;5.43;;;5.10;;
3259;SDS011;22469;48.150;14.004;2022-08-03T03:10:19;6.60;;;6.00;;
3259;SDS011;22469;48.150;14.004;2022-08-03T03:12:52;6.57;;;6.00;;
3259;SDS011;22469;48.150;14.004;2022-08-03T03:15:23;7.30;;;6.60;;
3259;SDS011;22469;48.150;14.004;2022-08-03T03:17:52;7.03;;;6.53;;
3259;SDS011;22469;48.150;14.004;2022-08-03T03:20:21;7.53;;;7.03;;
3259;SDS011;22469;48.150;14.004;2022-08-03T03:22:57;7.23;;;6.73;;
3259;SDS011;22469;48.150;14.004;2022-08-03T03:25:26;8.47;;;7.60;;
3259;SDS011;22469;48.150;14.004;2022-08-03T03:27:57;6.03;;;5.63;;
3259;SDS011;22469;48.150;14.004;2022-08-03T03:30:27;5.77;;;5.37;;
3259;SDS011;22469;48.150;14.004;2022-08-03T03:32:56;6.00;;;5.40;;
3259;SDS011;22469;48.150;14.004;2022-08-03T03:35:25;5.50;;;5.20;;
3259;SDS011;22469;48.150;14.004;2022-08-03T03:37:53;5.60;;;5.20;;
3259;SDS011;22469;48.150;14.004;2022-08-03T03:40:21;5.73;;;5.40;;
3259;SDS011;22469;48.150;14.004;2022-08-03T03:42:48;5.10;;;4.80;;
3259;SDS011;22469;48.150;14.004;2022-08-03T03:45:16;6.10;;;5.70;;
3259;SDS011;22469;48.150;14.004;2022-08-03T03:47:44;5.80;;;5.47;;
3259;SDS011;22469;48.150;14.004;2022-08-03T03:50:11;5.90;;;5.40;;
3259;SDS011;22469;48.150;14.004;2022-08-03T03:52:40;7.17;;;5.67;;
3259;SDS011;22469;48.150;14.004;2022-08-03T03:55:08;6.73;;;6.03;;
3259;SDS011;22469;48.150;14.004;2022-08-03T03:57:35;7.10;;;6.43;;
3259;SDS011;22469;48.150;14.004;2022-08-03T04:00:02;5.90;;;5.50;;
3259;SDS011;22469;48.150;14.004;2022-08-03T04:02:30;6.10;;;5.70;;
3259;SDS011;22469;48.150;14.004;2022-08-03T04:04:57;6.60;;;6.10;;
3259;SDS011;22469;48.150;14.004;2022-08-03T04:08:00;6.27;;;5.97;;
3259;SDS011;22469;48.150;14.004;2022-08-03T04:13:36;5.37;;;5.07;;
3259;SDS011;22469;48.150;14.004;2022-08-03T04:16:36;5.80;;;5.40;;
3259;SDS011;22469;48.150;14.004;2022-08-03T04:19:10;6.53;;;4.50;;
3259;SDS011;22469;48.150;14.004;2022-08-03T04:21:49;5.90;;;5.47;;
3259;SDS011;22469;48.150;14.004;2022-08-03T04:24:22;6.13;;;5.63;;
3259;SDS011;22469;48.150;14.004;2022-08-03T04:26:58;8.30;;;6.00;;
3259;SDS011;22469;48.150;14.004;2022-08-03T04:29:29;6.03;;;5.50;;
3259;SDS011;22469;48.150;14.004;2022-08-03T04:32:13;6.40;;;6.00;;
3259;SDS011;22469;48.150;14.004;2022-08-03T04:34:42;6.93;;;6.33;;
3259;SDS011;22469;48.150;14.004;2022-08-03T04:37:10;6.63;;;6.10;;
3259;SDS011;22469;48.150;14.004;2022-08-03T04:39:45;7.17;;;6.47;;
3259;SDS011;22469;48.150;14.004;2022-08-03T04:42:15;7.10;;;6.60;;
3259;SDS011;22469;48.150;14.004;2022-08-03T04:44:45;7.20;;;6.70;;
3259;SDS011;22469;48.150;14.004;2022-08-03T04:47:13;7.27;;;6.67;;
3259;SDS011;22469;48.150;14.004;2022-08-03T04:49:41;7.23;;;6.73;;
3259;SDS011;22469;48.150;14.004;2022-08-03T04:52:09;7.20;;;6.67;;
3259;SDS011;22469;48.150;14.004;2022-08-03T04:54:40;8.20;;;7.60;;
3259;SDS011;22469;48.150;14.004;2022-08-03T04:57:16;8.20;;;7.50;;
3259;SDS011;22469;48.150;14.004;2022-08-03T04:59:49;8.43;;;7.70;;
3259;SDS011;22469;48.150;14.004;2022-08-03T05:02:28;7.67;;;7.03;;
3259;SDS011;22469;48.150;14.004;2022-08-03T05:04:57;7.37;;;6.77;;
3259;SDS011;22469;48.150;14.004;2022-08-03T05:07:24;9.33;;;7.60;;
3259;SDS011;22469;48.150;14.004;2022-08-03T05:10:05;7.73;;;7.13;;
3259;SDS011;22469;48.150;14.004;2022-08-03T05:12:42;7.33;;;6.77;;
3259;SDS011;22469;48.150;14.004;2022-08-03T05:15:13;8.60;;;8.00;;
3259;SDS011;22469;48.150;14.004;2022-08-03T05:17:41;9.20;;;8.50;;
3259;SDS011;22469;48.150;14.004;2022-08-03T05:20:09;10.70;;;9.43;;
3259;SDS011;22469;48.150;14.004;2022-08-03T05:22:37;9.50;;;8.73;;
3259;SDS011;22469;48.150;14.004;2022-08-03T05:25:04;9.77;;;9.13;;
3259;SDS011;22469;48.150;14.004;2022-08-03T05:27:32;11.37;;;10.50;;
3259;SDS011;22469;48.150;14.004;2022-08-03T05:29:59;10.27;;;9.47;;
3259;SDS011;22469;48.150;14.004;2022-08-03T05:32:46;9.10;;;8.50;;
3259;SDS011;22469;48.150;14.004;2022-08-03T05:35:13;10.00;;;9.10;;
3259;SDS011;22469;48.150;14.004;2022-08-03T05:38:01;9.90;;;9.10;;
3259;SDS011;22469;48.150;14.004;2022-08-03T05:40:29;10.00;;;9.10;;
3259;SDS011;22469;48.150;14.004;2022-08-03T05:42:56;10.23;;;9.43;;
3259;SDS011;22469;48.150;14.004;2022-08-03T05:45:24;12.30;;;8.43;;
3259;SDS011;22469;48.150;14.004;2022-08-03T05:47:54;10.33;;;9.33;;
3259;SDS011;22469;48.150;14.004;2022-08-03T05:50:21;9.50;;;8.87;;
3259;SDS011;22469;48.150;14.004;2022-08-03T05:52:49;9.27;;;8.50;;
3259;SDS011;22469;48.150;14.004;2022-08-03T05:55:17;9.67;;;8.90;;
3259;SDS011;22469;48.150;14.004;2022-08-03T05:57:44;12.53;;;9.13;;
3259;SDS011;22469;48.150;14.004;2022-08-03T06:00:15;9.10;;;8.30;;
3259;SDS011;22469;48.150;14.004;2022-08-03T06:02:44;10.47;;;9.60;;
3259;SDS011;22469;48.150;14.004;2022-08-03T06:05:11;8.37;;;7.67;;
3259;SDS011;22469;48.150;14.004;2022-08-03T06:07:38;11.17;;;8.87;;
3259;SDS011;22469;48.150;14.004;2022-08-03T06:10:05;9.40;;;8.70;;
3259;SDS011;22469;48.150;14.004;2022-08-03T06:12:54;9.93;;;9.23;;
3259;SDS011;22469;48.150;14.004;2022-08-03T06:15:21;8.40;;;7.70;;
3259;SDS011;22469;48.150;14.004;2022-08-03T06:17:49;9.27;;;8.53;;
3259;SDS011;22469;48.150;14.004;2022-08-03T06:20:18;8.77;;;7.97;;
3259;SDS011;22469;48.150;14.004;2022-08-03T06:22:52;8.07;;;7.50;;
3259;SDS011;22469;48.150;14.004;2022-08-03T06:25:26;8.13;;;7.47;;
3259;SDS011;22469;48.150;14.004;2022-08-03T06:27:54;7.40;;;6.90;;
3259;SDS011;22469;48.150;14.004;2022-08-03T06:30:21;8.27;;;7.50;;
3259;SDS011;22469;48.150;14.004;2022-08-03T06:32:48;9.87;;;7.57;;
3259;SDS011;22469;48.150;14.004;2022-08-03T06:35:17;10.80;;;7.37;;
3259;SDS011;22469;48.150;14.004;2022-08-03T06:37:46;8.27;;;7.60;;
3259;SDS011;22469;48.150;14.004;2022-08-03T06:40:18;7.43;;;6.90;;
3259;SDS011;22469;48.150;14.004;2022-08-03T06:42:55;7.20;;;6.60;;
3259;SDS011;22469;48.150;14.004;2022-08-03T06:45:25;6.20;;;5.80;;
3259;SDS011;22469;48.150;14.004;2022-08-03T06:48:04;7.30;;;6.80;;
3259;SDS011;22469;48.150;14.004;2022-08-03T06:50:36;6.30;;;5.80;;
3259;SDS011;22469;48.150;14.004;2022-08-03T06:53:07;8.00;;;5.60;;
3259;SDS011;22469;48.150;14.004;2022-08-03T06:55:46;6.50;;;6.10;;
3259;SDS011;22469;48.150;14.004;2022-08-03T06:58:19;7.33;;;6.27;;
3259;SDS011;22469;48.150;14.004;2022-08-03T07:00:47;5.67;;;5.17;;
3259;SDS011;22469;48.150;14.004;2022-08-03T07:03:14;6.07;;;5.67;;
3259;SDS011;22469;48.150;14.004;2022-08-03T07:05:41;4.67;;;4.47;;
3259;SDS011;22469;48.150;14.004;2022-08-03T07:08:09;5.97;;;4.50;;
3259;SDS011;22469;48.150;14.004;2022-08-03T07:10:36;5.20;;;4.90;;
3259;SDS011;22469;48.150;14.004;2022-08-03T07:13:03;4.63;;;4.40;;
3259;SDS011;22469;48.150;14.004;2022-08-03T07:15:31;4.67;;;4.47;;
3259;SDS011;22469;48.150;14.004;2022-08-03T07:18:19;5.33;;;4.10;;
3259;SDS011;22469;48.150;14.004;2022-08-03T07:20:55;4.87;;;4.60;;
3259;SDS011;22469;48.150;14.004;2022-08-03T07:23:23;4.90;;;4.40;;
3259;SDS011;22469;48.150;14.004;2022-08-03T07:25:51;3.53;;;3.43;;
3259;SDS011;22469;48.150;14.004;2022-08-03T07:28:18;4.23;;;3.93;;
3259;SDS011;22469;48.150;14.004;2022-08-03T07:30:46;5.33;;;4.93;;
3259;SDS011;22469;48.150;14.004;2022-08-03T07:33:13;5.27;;;4.87;;
3259;SDS011;22469;48.150;14.004;2022-08-03T07:35:40;3.63;;;3.40;;
3259;SDS011;22469;48.150;14.004;2022-08-03T07:38:07;5.20;;;4.90;;
3259;SDS011;22469;48.150;14.004;2022-08-03T07:40:35;4.13;;;3.93;;
3259;SDS011;22469;48.150;14.004;2022-08-03T07:43:02;4.73;;;4.43;;
3259;SDS011;22469;48.150;14.004;2022-08-03T07:45:30;4.47;;;3.90;;
3259;SDS011;22469;48.150;14.004;2022-08-03T07:47:57;5.10;;;4.80;;
3259;SDS011;22469;48.150;14.004;2022-08-03T07:50:25;4.57;;;4.17;;
3259;SDS011;22469;48.150;14.004;2022-08-03T07:52:52;4.50;;;4.10;;
3259;SDS011;22469;48.150;14.004;2022-08-03T07:55:22;5.43;;;4.40;;
3259;SDS011;22469;48.150;14.004;2022-08-03T08:00:54;5.03;;;4.73;;
3259;SDS011;22469;48.150;14.004;2022-08-03T08:03:21;4.47;;;4.27;;
3259;SDS011;22469;48.150;14.004;2022-08-03T08:05:48;4.93;;;4.60;;
3259;SDS011;22469;48.150;14.004;2022-08-03T08:08:15;5.30;;;4.80;;
3259;SDS011;22469;48.150;14.004;2022-08-03T08:10:42;5.27;;;4.97;;
3259;SDS011;22469;48.150;14.004;2022-08-03T08:13:24;4.47;;;4.17;;
3259;SDS011;22469;48.150;14.004;2022-08-03T08:15:51;6.43;;;5.10;;
3259;SDS011;22469;48.150;14.004;2022-08-03T08:18:18;8.00;;;6.07;;
3259;SDS011;22469;48.150;14.004;2022-08-03T08:20:45;5.63;;;5.33;;
3259;SDS011;22469;48.150;14.004;2022-08-03T08:23:13;6.60;;;6.00;;
3259;SDS011;22469;48.150;14.004;2022-08-03T08:26:00;5.60;;;5.20;;
3259;SDS011;22469;48.150;14.004;2022-08-03T08:28:27;5.73;;;5.33;;
3259;SDS011;22469;48.150;14.004;2022-08-03T08:30:59;5.70;;;5.30;;
3259;SDS011;22469;48.150;14.004;2022-08-03T08:33:27;5.57;;;5.17;;
3259;SDS011;22469;48.150;14.004;2022-08-03T08:36:13;4.50;;;4.17;;
3259;SDS011;22469;48.150;14.004;2022-08-03T08:38:41;4.97;;;4.67;;
3259;SDS011;22469;48.150;14.004;2022-08-03T08:41:11;5.00;;;4.60;;
3259;SDS011;22469;48.150;14.004;2022-08-03T08:43:40;5.13;;;4.83;;
3259;SDS011;22469;48.150;14.004;2022-08-03T08:46:12;4.10;;;3.90;;
3259;SDS011;22469;48.150;14.004;2022-08-03T08:48:49;4.57;;;4.37;;
3259;SDS011;22469;48.150;14.004;2022-08-03T08:51:18;4.47;;;3.93;;
3259;SDS011;22469;48.150;14.004;2022-08-03T08:53:51;4.43;;;4.13;;
3259;SDS011;22469;48.150;14.004;2022-08-03T08:56:20;4.50;;;4.20;;
3259;SDS011;22469;48.150;14.004;2022-08-03T08:58:52;3.87;;;3.67;;
3259;SDS011;22469;48.150;14.004;2022-08-03T09:01:24;4.30;;;4.00;;
3259;SDS011;22469;48.150;14.004;2022-08-03T09:03:52;4.57;;;4.07;;
3259;SDS011;22469;48.150;14.004;2022-08-03T09:06:20;4.70;;;4.30;;
3259;SDS011;22469;48.150;14.004;2022-08-03T09:08:48;4.03;;;3.83;;
3259;SDS011;22469;48.150;14.004;2022-08-03T09:11:19;5.33;;;4.83;;
3259;SDS011;22469;48.150;14.004;2022-08-03T09:14:09;4.50;;;4.30;;
3259;SDS011;22469;48.150;14.004;2022-08-03T09:17:00;4.80;;;4.40;;
3259;SDS011;22469;48.150;14.004;2022-08-03T09:19:30;4.63;;;4.33;;
3259;SDS011;22469;48.150;14.004;2022-08-03T09:24:54;4.13;;;3.90;;
3259;SDS011;22469;48.150;14.004;2022-08-03T09:27:43;5.97;;;4.70;;
3259;SDS011;22469;48.150;14.004;2022-08-03T09:30:15;4.53;;;4.13;;
3259;SDS011;22469;48.150;14.004;2022-08-03T09:33:01;4.47;;;4.17;;
3259;SDS011;22469;48.150;14.004;2022-08-03T09:35:44;4.00;;;3.80;;
3259;SDS011;22469;48.150;14.004;2022-08-03T09:38:21;3.97;;;3.73;;
3259;SDS011;22469;48.150;14.004;2022-08-03T09:40:52;4.00;;;3.70;;
3259;SDS011;22469;48.150;14.004;2022-08-03T09:43:26;4.77;;;4.40;;
3259;SDS011;22469;48.150;14.004;2022-08-03T09:46:03;4.20;;;3.90;;
3259;SDS011;22469;48.150;14.004;2022-08-03T09:48:33;4.87;;;4.57;;
3259;SDS011;22469;48.150;14.004;2022-08-03T09:51:01;4.17;;;3.83;;
3259;SDS011;22469;48.150;14.004;2022-08-03T09:53:50;4.53;;;4.10;;
3259;SDS011;22469;48.150;14.004;2022-08-03T09:56:36;5.70;;;4.07;;
3259;SDS011;22469;48.150;14.004;2022-08-03T09:59:09;4.03;;;3.73;;
3259;SDS011;22469;48.150;14.004;2022-08-03T10:01:38;4.80;;;4.50;;
3259;SDS011;22469;48.150;14.004;2022-08-03T10:04:11;3.73;;;3.63;;
3259;SDS011;22469;48.150;14.004;2022-08-03T10:06:40;3.97;;;3.77;;
3259;SDS011;22469;48.150;14.004;2022-08-03T10:09:13;4.00;;;3.80;;
3259;SDS011;22469;48.150;14.004;2022-08-03T10:11:42;3.90;;;3.57;;
3259;SDS011;22469;48.150;14.004;2022-08-03T10:14:12;3.43;;;3.23;;
3259;SDS011;22469;48.150;14.004;2022-08-03T10:16:46;4.13;;;3.83;;
3259;SDS011;22469;48.150;14.004;2022-08-03T10:19:14;3.60;;;3.47;;
3259;SDS011;22469;48.150;14.004;2022-08-03T10:21:46;3.20;;;3.10;;
3259;SDS011;22469;48.150;14.004;2022-08-03T10:24:25;4.03;;;2.60;;
3259;SDS011;22469;48.150;14.004;2022-08-03T10:26:58;4.20;;;3.90;;
3259;SDS011;22469;48.150;14.004;2022-08-03T10:29:31;3.40;;;3.20;;
3259;SDS011;22469;48.150;14.004;2022-08-03T10:35:11;3.70;;;3.40;;
3259;SDS011;22469;48.150;14.004;2022-08-03T10:40:25;2.90;;;2.80;;
3259;SDS011;22469;48.150;14.004;2022-08-03T10:43:19;2.83;;;2.67;;
3259;SDS011;22469;48.150;14.004;2022-08-03T10:45:52;3.30;;;3.00;;
3259;SDS011;22469;48.150;14.004;2022-08-03T10:48:20;3.43;;;3.00;;
3259;SDS011;22469;48.150;14.004;2022-08-03T10:50:48;3.00;;;2.90;;
3259;SDS011;22469;48.150;14.004;2022-08-03T10:53:16;4.47;;;3.50;;
3259;SDS011;22469;48.150;14.004;2022-08-03T10:56:01;3.63;;;2.60;;
3259;SDS011;22469;48.150;14.004;2022-08-03T10:59:14;3.10;;;2.90;;
3259;SDS011;22469;48.150;14.004;2022-08-03T11:01:54;2.60;;;2.50;;
3259;SDS011;22469;48.150;14.004;2022-08-03T11:04:26;2.40;;;2.30;;
3259;SDS011;22469;48.150;14.004;2022-08-03T11:09:53;2.60;;;2.50;;
3259;SDS011;22469;48.150;14.004;2022-08-03T11:12:25;2.40;;;2.30;;
3259;SDS011;22469;48.150;14.004;2022-08-03T11:15:02;2.73;;;2.63;;
3259;SDS011;22469;48.150;14.004;2022-08-03T11:17:34;2.33;;;2.23;;
3259;SDS011;22469;48.150;14.004;2022-08-03T11:23:41;2.17;;;2.07;;
3259;SDS011;22469;48.150;14.004;2022-08-03T11:26:29;2.60;;;2.13;;
3259;SDS011;22469;48.150;14.004;2022-08-03T11:29:17;2.10;;;2.00;;
3259;SDS011;22469;48.150;14.004;2022-08-03T11:31:56;1.90;;;1.80;;
3259;SDS011;22469;48.150;14.004;2022-08-03T11:34:24;6.03;;;2.50;;
3259;SDS011;22469;48.150;14.004;2022-08-03T11:39:58;2.43;;;2.23;;
3259;SDS011;22469;48.150;14.004;2022-08-03T11:44:55;3.07;;;2.20;;
3259;SDS011;22469;48.150;14.004;2022-08-03T11:47:26;3.17;;;2.10;;
3259;SDS011;22469;48.150;14.004;2022-08-03T11:49:56;3.00;;;2.10;;
3259;SDS011;22469;48.150;14.004;2022-08-03T11:52:37;1.50;;;1.50;;
3259;SDS011;22469;48.150;14.004;2022-08-03T11:55:10;2.33;;;2.23;;
3259;SDS011;22469;48.150;14.004;2022-08-03T11:57:39;2.27;;;2.07;;
3259;SDS011;22469;48.150;14.004;2022-08-03T12:02:56;1.87;;;1.87;;
3259;SDS011;22469;48.150;14.004;2022-08-03T12:05:35;2.23;;;2.13;;
3259;SDS011;22469;48.150;14.004;2022-08-03T12:08:18;2.13;;;2.03;;
3259;SDS011;22469;48.150;14.004;2022-08-03T12:11:00;3.57;;;2.00;;
3259;SDS011;22469;48.150;14.004;2022-08-03T12:13:47;2.00;;;1.90;;
3259;SDS011;22469;48.150;14.004;2022-08-03T12:16:36;1.90;;;1.80;;
3259;SDS011;22469;48.150;14.004;2022-08-03T12:19:04;1.90;;;1.80;;
3259;SDS011;22469;48.150;14.004;2022-08-03T12:21:32;1.87;;;1.77;;
3259;SDS011;22469;48.150;14.004;2022-08-03T12:24:00;2.00;;;1.90;;
3259;SDS011;22469;48.150;14.004;2022-08-03T12:26:41;1.97;;;1.87;;
3259;SDS011;22469;48.150;14.004;2022-08-03T12:29:24;2.80;;;2.47;;
3259;SDS011;22469;48.150;14.004;2022-08-03T12:31:52;2.80;;;1.70;;
3259;SDS011;22469;48.150;14.004;2022-08-03T12:34:21;2.30;;;2.30;;
3259;SDS011;22469;48.150;14.004;2022-08-03T12:36:49;1.60;;;1.60;;
3259;SDS011;22469;48.150;14.004;2022-08-03T12:39:21;1.90;;;1.80;;
3259;SDS011;22469;48.150;14.004;2022-08-03T12:41:52;3.90;;;1.80;;
3259;SDS011;22469;48.150;14.004;2022-08-03T12:44:55;2.10;;;2.00;;
3259;SDS011;22469;48.150;14.004;2022-08-03T12:47:21;1.70;;;1.70;;
3259;SDS011;22469;48.150;14.004;2022-08-03T12:49:52;2.00;;;1.90;;
3259;SDS011;22469;48.150;14.004;2022-08-03T12:52:20;2.40;;;1.90;;
3259;SDS011;22469;48.150;14.004;2022-08-03T12:54:58;1.80;;;1.70;;
3259;SDS011;22469;48.150;14.004;2022-08-03T12:57:39;2.03;;;1.90;;
3259;SDS011;22469;48.150;14.004;2022-08-03T13:00:11;1.80;;;1.80;;
3259;SDS011;22469;48.150;14.004;2022-08-03T13:03:05;3.20;;;1.90;;
3259;SDS011;22469;48.150;14.004;2022-08-03T13:05:53;2.33;;;2.23;;
3259;SDS011;22469;48.150;14.004;2022-08-03T13:08:22;1.57;;;1.47;;
3259;SDS011;22469;48.150;14.004;2022-08-03T13:10:50;2.10;;;2.00;;
3259;SDS011;22469;48.150;14.004;2022-08-03T13:13:18;1.70;;;1.70;;
3259;SDS011;22469;48.150;14.004;2022-08-03T13:16:03;2.00;;;1.90;;
3259;SDS011;22469;48.150;14.004;2022-08-03T13:18:30;4.10;;;1.63;;
3259;SDS011;22469;48.150;14.004;2022-08-03T13:20:59;1.70;;;1.60;;
3259;SDS011;22469;48.150;14.004;2022-08-03T13:23:26;1.67;;;1.67;;
3259;SDS011;22469;48.150;14.004;2022-08-03T13:25:53;1.73;;;1.50;;
3259;SDS011;22469;48.150;14.004;2022-08-03T13:28:21;1.83;;;1.83;;
3259;SDS011;22469;48.150;14.004;2022-08-03T13:30:48;1.60;;;1.60;;
3259;SDS011;22469;48.150;14.004;2022-08-03T13:33:16;2.00;;;1.90;;
3259;SDS011;22469;48.150;14.004;2022-08-03T13:35:43;1.67;;;1.40;;
3259;SDS011;22469;48.150;14.004;2022-08-03T13:38:10;1.83;;;1.73;;
3259;SDS011;22469;48.150;14.004;2022-08-03T13:40:40;1.97;;;1.97;;
3259;SDS011;22469;48.150;14.004;2022-08-03T13:43:08;2.10;;;2.00;;
3259;SDS011;22469;48.150;14.004;2022-08-03T13:45:35;2.90;;;1.77;;
3259;SDS011;22469;48.150;14.004;2022-08-03T13:48:02;1.50;;;1.50;;
3259;SDS011;22469;48.150;14.004;2022-08-03T13:50:29;1.73;;;1.67;;
3259;SDS011;22469;48.150;14.004;2022-08-03T13:52:56;1.93;;;1.70;;
3259;SDS011;22469;48.150;14.004;2022-08-03T13:55:24;3.77;;;2.00;;
3259;SDS011;22469;48.150;14.004;2022-08-03T13:57:51;1.50;;;1.50;;
3259;SDS011;22469;48.150;14.004;2022-08-03T14:00:32;1.93;;;1.77;;
3259;SDS011;22469;48.150;14.004;2022-08-03T14:03:00;1.30;;;1.30;;
3259;SDS011;22469;48.150;14.004;2022-08-03T14:05:40;1.87;;;1.77;;
3259;SDS011;22469;48.150;14.004;2022-08-03T14:08:09;1.70;;;1.60;;
3259;SDS011;22469;48.150;14.004;2022-08-03T14:10:38;2.07;;;1.97;;
3259;SDS011;22469;48.150;14.004;2022-08-03T14:13:09;1.60;;;1.60;;
3259;SDS011;22469;48.150;14.004;2022-08-03T14:15:42;1.73;;;1.63;;
3259;SDS011;22469;48.150;14.004;2022-08-03T14:18:17;1.97;;;1.87;;
3259;SDS011;22469;48.150;14.004;2022-08-03T14:20:54;1.43;;;1.43;;
3259;SDS011;22469;48.150;14.004;2022-08-03T14:23:30;1.60;;;1.50;;
3259;SDS011;22469;48.150;14.004;2022-08-03T14:25:59;3.07;;;1.60;;
3259;SDS011;22469;48.150;14.004;2022-08-03T14:28:27;1.30;;;1.30;;
3259;SDS011;22469;48.150;14.004;2022-08-03T14:30:54;1.43;;;1.43;;
3259;SDS011;22469;48.150;14.004;2022-08-03T14:33:21;1.80;;;1.70;;
3259;SDS011;22469;48.150;14.004;2022-08-03T14:35:50;2.03;;;1.70;;
3259;SDS011;22469;48.150;14.004;2022-08-03T14:38:17;1.40;;;1.40;;
3259;SDS011;22469;48.150;14.004;2022-08-03T14:40:46;1.97;;;1.87;;
3259;SDS011;22469;48.150;14.004;2022-08-03T14:43:14;1.67;;;1.57;;
3259;SDS011;22469;48.150;14.004;2022-08-03T14:45:48;1.27;;;1.27;;
3259;SDS011;22469;48.150;14.004;2022-08-03T14:48:19;1.20;;;1.20;;
3259;SDS011;22469;48.150;14.004;2022-08-03T14:51:08;2.03;;;2.03;;
3259;SDS011;22469;48.150;14.004;2022-08-03T14:53:35;1.60;;;1.60;;
3259;SDS011;22469;48.150;14.004;2022-08-03T14:56:02;1.53;;;1.47;;
3259;SDS011;22469;48.150;14.004;2022-08-03T14:58:35;1.53;;;1.53;;
3259;SDS011;22469;48.150;14.004;2022-08-03T15:01:03;1.83;;;1.60;;
3259;SDS011;22469;48.150;14.004;2022-08-03T15:03:50;1.93;;;1.80;;
3259;SDS011;22469;48.150;14.004;2022-08-03T15:06:19;1.77;;;1.67;;
3259;SDS011;22469;48.150;14.004;2022-08-03T15:08:46;1.50;;;1.50;;
3259;SDS011;22469;48.150;14.004;2022-08-03T15:11:35;1.40;;;1.40;;
3259;SDS011;22469;48.150;14.004;2022-08-03T15:14:02;1.57;;;1.47;;
3259;SDS011;22469;48.150;14.004;2022-08-03T15:16:34;1.73;;;1.30;;
3259;SDS011;22469;48.150;14.004;2022-08-03T15:19:01;1.53;;;1.43;;
3259;SDS011;22469;48.150;14.004;2022-08-03T15:21:48;1.60;;;1.60;;
3259;SDS011;22469;48.150;14.004;2022-08-03T15:24:16;1.40;;;1.40;;
3259;SDS011;22469;48.150;14.004;2022-08-03T15:26:43;1.40;;;1.40;;
3259;SDS011;22469;48.150;14.004;2022-08-03T15:29:10;1.20;;;1.20;;
3259;SDS011;22469;48.150;14.004;2022-08-03T15:31:59;1.53;;;1.53;;
3259;SDS011;22469;48.150;14.004;2022-08-03T15:34:26;2.00;;;1.90;;
3259;SDS011;22469;48.150;14.004;2022-08-03T15:36:53;1.33;;;1.33;;
3259;SDS011;22469;48.150;14.004;2022-08-03T15:39:20;2.03;;;1.43;;
3259;SDS011;22469;48.150;14.004;2022-08-03T15:41:47;1.40;;;1.30;;
3259;SDS011;22469;48.150;14.004;2022-08-03T15:44:17;1.73;;;1.73;;
3259;SDS011;22469;48.150;14.004;2022-08-03T15:46:45;2.50;;;1.70;;
3259;SDS011;22469;48.150;14.004;2022-08-03T15:49:13;1.40;;;1.40;;
3259;SDS011;22469;48.150;14.004;2022-08-03T15:51:40;1.40;;;1.40;;
3259;SDS011;22469;48.150;14.004;2022-08-03T15:54:07;1.90;;;1.43;;
3259;SDS011;22469;48.150;14.004;2022-08-03T15:56:35;1.43;;;1.33;;
3259;SDS011;22469;48.150;14.004;2022-08-03T15:59:02;1.30;;;1.30;;
3259;SDS011;22469;48.150;14.004;2022-08-03T16:01:39;1.60;;;1.50;;